KRIL/RIL METAR and TAF weather

Enter ICAO airport designator
Station Type Date Time Source
KRIL METAR 2019/04/25 09:53 UTC NOAA

KRIL 250953Z AUTO 17003KT 10SM OVC085 08/03 A3011 RMK AO2 SLP147 T00830028 $


Station Type Date Time Source
KRIL Decoded METAR 2019/04/25 09:53 UTC NOAA

RIFLE GARFIELD COUNTY RGNL, CO, United States (KRIL) 39-31N 107-44W 1678M
Apr 25, 2019 - 05:53 AM EDT / 2019.04.25 0953 UTC
Wind: from the S (170 degrees) at 3 MPH (3 KT):0
Visibility: 10 mile(s):0
Sky conditions: overcast
Temperature: 46.9 F (8.3 C)
Dew Point: 37.0 F (2.8 C)
Relative Humidity: 68%
Pressure (altimeter): 30.11 in. Hg (1019 hPa)
ob: KRIL 250953Z AUTO 17003KT 10SM OVC085 08/03 A3011 RMK AO2 SLP147 T00830028
cycle: 10

Station Type Date Time Source
KRIL TAF 2019/04/25 06:42 UTC NOAA

TAF KRIL 250538Z 2506/2606 26006KT P6SM SCT080 BKN120
FM251200 VRB04KT P6SM FEW080 FEW120
FM251800 28010KT P6SM FEW100 SCT250
FM260300 14005KT P6SM SCT090 BKN200

Example: see airport list